Time;durP1;ratioP1;P1;durP2;ratioP2;P2;SDS_P1;SDS_P2;PMS_P1;PMS_P2;Temp;Humidity;BMP_temperature;BMP_pressure;BME280_temperature;BME280_humidity;BME280_pressure;Samples;Min_cycle;Max_cycle;Signal;HPM_P1;HPM_P2
2022/11/14 00:00:08;;;;;;;30.58;16.40;;;;;;;4.78;100.00;101233.03;5072535;28;20028;-82
2022/11/14 00:02:33;;;;;;;36.05;17.08;;;;;;;4.68;100.00;101242.59;5105742;28;20040;-82
2022/11/14 00:04:58;;;;;;;33.08;17.25;;;;;;;4.60;100.00;101237.53;5086513;28;20154;-82
2022/11/14 00:07:24;;;;;;;35.20;16.85;;;;;;;4.60;100.00;101239.38;5086483;28;20137;-83
2022/11/14 00:09:49;;;;;;;35.65;17.10;;;;;;;4.46;100.00;101223.78;5051713;28;20036;-83
2022/11/14 00:12:15;;;;;;;34.63;16.05;;;;;;;4.31;100.00;101214.56;5065810;28;20044;-82
2022/11/14 00:14:40;;;;;;;31.17;16.05;;;;;;;4.57;100.00;101236.81;5083812;28;20042;-83
2022/11/14 00:17:09;;;;;;;33.40;15.90;;;;;;;4.63;100.00;101247.38;5079081;28;20036;-82
2022/11/14 00:19:34;;;;;;;34.17;15.95;;;;;;;4.69;100.00;101236.22;5086229;28;20063;-82
2022/11/14 00:22:00;;;;;;;30.98;16.40;;;;;;;4.44;100.00;101208.53;5085854;28;20040;-81
2022/11/14 00:24:26;;;;;;;33.80;17.23;;;;;;;4.49;100.00;101220.91;5103031;28;20088;-81
2022/11/14 00:26:51;;;;;;;30.27;16.00;;;;;;;4.49;100.00;101210.03;5085438;28;20092;-82
2022/11/14 00:29:17;;;;;;;35.78;15.30;;;;;;;4.55;100.00;101234.16;5081053;28;20556;-82
2022/11/14 00:31:42;;;;;;;35.10;16.58;;;;;;;4.46;100.00;101218.34;5069104;28;20173;-83
2022/11/14 00:34:08;;;;;;;38.60;17.17;;;;;;;4.48;100.00;101215.56;5084828;28;20024;-81
2022/11/14 00:36:34;;;;;;;35.28;17.35;;;;;;;4.42;100.00;101208.59;5084874;28;20039;-81
2022/11/14 00:38:59;;;;;;;33.63;16.45;;;;;;;4.35;100.00;101199.88;5084427;28;20051;-83
2022/11/14 00:41:25;;;;;;;38.90;16.17;;;;;;;4.24;100.00;101205.81;5068301;28;20032;-82
2022/11/14 00:43:51;;;;;;;38.30;16.33;;;;;;;4.35;100.00;101218.84;5083244;28;20111;-83
2022/11/14 00:46:17;;;;;;;33.55;16.25;;;;;;;4.32;100.00;101210.00;5048725;28;20056;-82
2022/11/14 00:48:42;;;;;;;33.20;16.17;;;;;;;4.33;100.00;101219.88;5064828;28;20045;-82
2022/11/14 00:51:08;;;;;;;31.75;15.07;;;;;;;4.28;100.00;101208.38;5082564;28;20037;-82
2022/11/14 00:53:33;;;;;;;36.28;15.73;;;;;;;4.20;100.00;101195.19;5084930;28;20032;-80
2022/11/14 00:55:59;;;;;;;32.40;15.35;;;;;;;4.30;100.00;101207.34;5085246;28;20111;-81
2022/11/14 00:58:24;;;;;;;30.83;14.98;;;;;;;4.15;100.00;101198.13;5065656;28;20089;-82
2022/11/14 01:00:51;;;;;;;36.83;15.25;;;;;;;4.24;100.00;101196.78;5102125;28;20036;-82
2022/11/14 01:03:17;;;;;;;28.42;14.18;;;;;;;4.16;100.00;101190.88;5101161;28;20039;-83
2022/11/14 01:05:45;;;;;;;33.00;15.30;;;;;;;4.08;100.00;101182.22;5084846;28;20036;-83
2022/11/14 01:08:12;;;;;;;33.03;15.50;;;;;;;4.13;100.00;101189.19;5102063;28;20028;-82
2022/11/14 01:10:45;;;;;;;31.88;15.25;;;;;;;4.11;100.00;101184.78;5068644;28;20061;-82
2022/11/14 01:13:12;;;;;;;28.40;14.02;;;;;;;4.00;100.00;101182.56;5105127;28;20043;-82
2022/11/14 01:15:42;;;;;;;36.85;15.57;;;;;;;4.00;100.00;101177.16;5105164;28;20032;-82
2022/11/14 01:18:17;;;;;;;34.25;13.98;;;;;;;3.94;100.00;101196.41;5088945;28;20096;-82
2022/11/14 01:20:45;;;;;;;31.17;14.43;;;;;;;3.88;100.00;101184.00;5089743;28;20070;-82
2022/11/14 01:23:12;;;;;;;32.70;14.57;;;;;;;3.90;100.00;101181.22;5105012;28;20091;-81
2022/11/14 01:25:39;;;;;;;31.70;15.65;;;;;;;3.94;100.00;101182.88;5086958;28;20039;-81
2022/11/14 01:28:08;;;;;;;29.88;13.80;;;;;;;4.05;100.00;101185.97;5100437;28;20043;-83
2022/11/14 01:30:35;;;;;;;32.42;14.68;;;;;;;4.04;100.00;101176.06;5098569;28;20047;-82
2022/11/14 01:33:01;;;;;;;27.15;14.88;;;;;;;4.01;100.00;101170.78;5084004;28;20031;-82
2022/11/14 01:35:27;;;;;;;26.23;13.35;;;;;;;3.96;100.00;101162.00;5100137;28;20471;-82
2022/11/14 01:37:52;;;;;;;32.08;13.02;;;;;;;3.99;100.00;101161.84;5083450;28;20024;-82
2022/11/14 01:40:18;;;;;;;29.63;13.98;;;;;;;3.76;100.00;101146.69;5080590;28;20047;-82
2022/11/14 01:43:15;;;;;;;31.70;13.88;;;;;;;3.88;100.00;101166.91;5096778;28;20050;-82
2022/11/14 01:46:05;;;;;;;43.03;14.25;;;;;;;3.73;100.00;101150.41;5082092;28;20044;-83
2022/11/14 01:48:44;;;;;;;25.70;13.25;;;;;;;3.79;100.00;101158.25;5099765;28;20027;-82
2022/11/14 01:51:30;;;;;;;29.45;13.77;;;;;;;3.65;100.00;101152.56;5099841;28;20036;-81
2022/11/14 01:54:00;;;;;;;27.30;13.88;;;;;;;3.55;100.00;101146.69;5079811;28;20036;-83
2022/11/14 01:56:43;;;;;;;28.65;13.88;;;;;;;3.31;100.00;101133.31;5079841;28;20039;-82
2022/11/14 01:59:16;;;;;;;26.92;13.35;;;;;;;3.44;100.00;101139.06;5062273;28;20389;-83
2022/11/14 02:01:49;;;;;;;33.17;13.23;;;;;;;3.38;100.00;101127.63;5046544;28;20421;-82
2022/11/14 02:04:20;;;;;;;29.93;12.70;;;;;;;3.24;100.00;101114.72;5066680;28;20024;-82
2022/11/14 02:06:46;;;;;;;41.58;14.43;;;;;;;3.25;100.00;101121.91;5079156;28;20294;-82
2022/11/14 02:09:12;;;;;;;35.85;12.95;;;;;;;3.42;100.00;101118.44;5063519;28;20400;-82
2022/11/14 02:11:41;;;;;;;43.22;15.40;;;;;;;3.40;100.00;101126.63;5079139;28;20028;-82
2022/11/14 02:14:07;;;;;;;27.45;13.70;;;;;;;3.43;100.00;101120.19;5081206;28;20036;-82
2022/11/14 02:16:33;;;;;;;29.50;13.02;;;;;;;3.52;100.00;101113.47;5049577;28;20065;-83
2022/11/14 02:18:58;;;;;;;33.95;14.50;;;;;;;3.60;100.00;101112.16;5079055;28;20037;-82
2022/11/14 02:21:24;;;;;;;27.15;13.93;;;;;;;3.63;100.00;101105.75;5062242;28;20028;-83
2022/11/14 02:23:49;;;;;;;36.17;14.75;;;;;;;3.64;100.00;101096.66;5079178;28;20044;-82
2022/11/14 02:26:19;;;;;;;24.58;13.32;;;;;;;3.59;100.00;101093.28;5062435;28;20041;-82
2022/11/14 02:28:45;;;;;;;32.25;14.77;;;;;;;3.61;100.00;101099.53;5088735;28;20040;-82
2022/11/14 02:31:13;;;;;;;27.55;13.27;;;;;;;3.44;100.00;101095.78;5067206;28;20089;-82
2022/11/14 02:33:39;;;;;;;53.08;15.02;;;;;;;3.49;100.00;101096.44;5099246;28;20043;-83
2022/11/14 02:36:08;;;;;;;28.98;14.45;;;;;;;3.57;100.00;101095.19;5099116;28;20139;-82
2022/11/14 02:38:35;;;;;;;34.38;15.15;;;;;;;3.66;100.00;101092.94;5037865;28;20032;-81
2022/11/14 02:41:01;;;;;;;40.60;14.63;;;;;;;3.66;100.00;101098.34;5044756;28;20032;-82
2022/11/14 02:43:26;;;;;;;47.60;15.45;;;;;;;3.59;100.00;101090.56;5062207;28;20051;-82
2022/11/14 02:45:52;;;;;;;37.60;16.10;;;;;;;3.63;100.00;101093.06;5065496;28;20056;-82
2022/11/14 02:48:18;;;;;;;41.28;15.38;;;;;;;3.49;100.00;101084.69;5044994;28;20043;-82
2022/11/14 02:50:43;;;;;;;35.75;16.67;;;;;;;3.46;100.00;101087.56;5082869;28;20111;-82
2022/11/14 02:53:09;;;;;;;31.60;14.98;;;;;;;3.38;100.00;101074.38;5066284;28;20047;-81
2022/11/14 02:55:34;;;;;;;37.58;15.50;;;;;;;3.43;100.00;101083.16;5082805;28;20111;-82
2022/11/14 02:58:00;;;;;;;31.58;15.38;;;;;;;3.48;100.00;101081.13;5081611;28;20039;-83
2022/11/14 03:00:25;;;;;;;36.60;14.70;;;;;;;3.55;100.00;101080.84;5083383;28;20024;-82
2022/11/14 03:02:54;;;;;;;30.73;15.07;;;;;;;3.42;100.00;101070.56;5099507;28;20047;-80
2022/11/14 03:05:20;;;;;;;39.95;15.00;;;;;;;3.48;100.00;101085.69;5082153;28;20054;-82
2022/11/14 03:07:46;;;;;;;31.77;14.18;;;;;;;3.34;100.00;101078.16;5100835;28;20040;-81
2022/11/14 03:10:12;;;;;;;36.03;14.65;;;;;;;3.29;100.00;101078.38;5066347;28;20379;-82
2022/11/14 03:12:38;;;;;;;37.75;14.75;;;;;;;3.26;100.00;101085.75;5099038;28;20039;-82
2022/11/14 03:15:05;;;;;;;43.10;15.07;;;;;;;3.02;100.00;101085.91;5065758;28;20032;-83
2022/11/14 03:17:32;;;;;;;30.02;14.02;;;;;;;3.08;100.00;101082.03;5078222;28;20033;-83
2022/11/14 03:19:58;;;;;;;39.40;15.45;;;;;;;3.13;100.00;101075.50;5045363;28;20029;-83
2022/11/14 03:22:24;;;;;;;29.98;14.02;;;;;;;3.09;100.00;101075.69;5045237;28;20044;-82
2022/11/14 03:24:49;;;;;;;36.45;14.35;;;;;;;3.09;100.00;101063.03;5078590;28;20388;-82
2022/11/14 03:27:14;;;;;;;33.00;15.65;;;;;;;3.07;100.00;101072.19;5047782;28;20032;-82
2022/11/14 03:29:40;;;;;;;28.48;14.52;;;;;;;3.04;100.00;101072.31;5099607;28;20515;-82
2022/11/14 03:32:05;;;;;;;31.17;14.18;;;;;;;2.86;100.00;101068.59;5065751;28;20040;-83
2022/11/14 03:34:31;;;;;;;37.95;14.93;;;;;;;2.86;100.00;101074.88;5082661;28;20039;-82
2022/11/14 03:36:56;;;;;;;30.77;15.93;;;;;;;2.73;100.00;101068.25;5065443;28;20031;-82
2022/11/14 03:39:22;;;;;;;31.33;14.68;;;;;;;2.67;100.00;101076.63;5082567;28;20502;-82
2022/11/14 03:41:47;;;;;;;32.90;15.13;;;;;;;2.64;100.00;101077.66;5081501;28;20086;-82
2022/11/14 03:44:13;;;;;;;36.25;16.25;;;;;;;2.52;100.00;101061.94;5097113;28;20040;-82
2022/11/14 03:46:38;;;;;;;33.80;15.20;;;;;;;2.56;100.00;101069.84;5086012;28;20063;-83
2022/11/14 03:49:04;;;;;;;34.50;14.70;;;;;;;2.45;100.00;101066.72;5085839;28;20178;-82
2022/11/14 03:51:30;;;;;;;34.42;14.93;;;;;;;2.40;100.00;101041.72;5088836;28;20113;-82
2022/11/14 03:53:55;;;;;;;55.08;19.80;;;;;;;2.44;100.00;101054.13;5107417;28;20415;-82
2022/11/14 03:56:21;;;;;;;32.45;15.75;;;;;;;2.21;100.00;101030.78;5057491;28;20036;-83
2022/11/14 03:58:47;;;;;;;37.28;14.88;;;;;;;2.35;100.00;101046.44;5089427;28;20112;-82
2022/11/14 04:01:13;;;;;;;30.95;14.80;;;;;;;2.45;100.00;101053.22;5126374;28;20050;-83
2022/11/14 04:03:38;;;;;;;36.40;15.20;;;;;;;2.33;100.00;101041.09;5091744;28;20039;-82
2022/11/14 04:06:06;;;;;;;33.38;15.27;;;;;;;2.32;100.00;101044.72;5102849;28;20069;-81
2022/11/14 04:08:32;;;;;;;31.90;14.65;;;;;;;2.32;100.00;101036.63;5070232;28;20034;-81
2022/11/14 04:10:58;;;;;;;30.95;14.70;;;;;;;2.42;100.00;101038.94;5068885;28;20382;-82
2022/11/14 04:13:23;;;;;;;33.85;15.00;;;;;;;2.52;100.00;101040.31;5052289;28;20051;-83
2022/11/14 04:15:57;;;;;;;33.10;14.68;;;;;;;2.60;100.00;101031.88;5069416;28;20032;-82
2022/11/14 04:18:23;;;;;;;27.88;14.27;;;;;;;2.56;100.00;101031.16;5089135;28;20343;-83
2022/11/14 04:20:49;;;;;;;33.78;14.45;;;;;;;2.54;100.00;101036.63;5106457;28;20059;-82
2022/11/14 04:23:15;;;;;;;32.75;15.98;;;;;;;2.32;100.00;101006.03;5073362;28;20368;-82
2022/11/14 04:25:43;;;;;;;36.20;15.45;;;;;;;2.31;100.00;101013.28;5105943;28;20478;-81
2022/11/14 04:28:08;;;;;;;38.22;15.25;;;;;;;2.50;100.00;101042.22;5105976;28;20031;-81
2022/11/14 04:30:35;;;;;;;34.72;15.55;;;;;;;2.47;100.00;101034.22;5106188;28;20455;-81
2022/11/14 04:33:00;;;;;;;32.53;15.73;;;;;;;2.56;100.00;101040.13;5106629;28;20039;-81
2022/11/14 04:35:26;;;;;;;37.97;16.13;;;;;;;2.50;100.00;101032.25;5088883;28;20028;-83
2022/11/14 04:37:52;;;;;;;35.65;14.18;;;;;;;2.41;100.00;101027.28;5089028;28;20428;-82
2022/11/14 04:40:18;;;;;;;36.20;15.35;;;;;;;2.40;100.00;101033.63;5087491;28;20079;-82
2022/11/14 04:42:43;;;;;;;32.17;14.90;;;;;;;2.51;100.00;101034.03;5067472;28;20115;-82
2022/11/14 04:45:09;;;;;;;35.97;15.02;;;;;;;2.31;100.00;101028.59;5085254;28;20052;-82
2022/11/14 04:47:35;;;;;;;31.98;15.35;;;;;;;2.23;100.00;101017.22;5068266;28;20048;-82
2022/11/14 04:50:01;;;;;;;34.50;14.50;;;;;;;2.02;100.00;101022.59;5101473;28;20042;-82
2022/11/14 04:52:27;;;;;;;30.27;13.65;;;;;;;2.00;100.00;101028.06;5067377;28;20032;-82
2022/11/14 04:54:53;;;;;;;30.27;13.90;;;;;;;2.13;100.00;101020.31;5071757;28;20039;-83
2022/11/14 04:57:18;;;;;;;34.47;15.60;;;;;;;2.14;100.00;101016.66;5106105;28;20046;-82
2022/11/14 04:59:44;;;;;;;35.92;15.32;;;;;;;2.13;100.00;101011.31;5105288;28;20046;-82
2022/11/14 05:02:09;;;;;;;34.45;15.38;;;;;;;2.15;100.00;101014.88;5084612;28;20233;-82
2022/11/14 05:04:35;;;;;;;43.28;17.98;;;;;;;1.99;100.00;100998.41;5095152;28;20031;-81
2022/11/14 05:07:00;;;;;;;36.00;14.75;;;;;;;2.09;100.00;101020.50;5082768;28;20097;-82
2022/11/14 05:09:26;;;;;;;36.50;16.20;;;;;;;2.00;100.00;101009.16;5038396;28;20043;-82
2022/11/14 05:11:51;;;;;;;31.05;15.45;;;;;;;2.05;100.00;101013.47;5054489;28;20479;-82
2022/11/14 05:14:17;;;;;;;41.78;14.80;;;;;;;2.03;100.00;101008.13;5072766;28;20048;-83
2022/11/14 05:16:42;;;;;;;35.70;15.48;;;;;;;1.98;100.00;101015.53;5088062;28;20020;-84
2022/11/14 05:19:08;;;;;;;33.92;14.80;;;;;;;1.98;100.00;101010.13;5105569;28;20044;-82
2022/11/14 05:21:33;;;;;;;33.78;14.57;;;;;;;1.81;100.00;100990.09;5055063;28;20024;-82
2022/11/14 05:23:59;;;;;;;25.27;13.82;;;;;;;1.92;100.00;101000.47;5087625;28;20040;-83
2022/11/14 05:26:24;;;;;;;32.38;14.40;;;;;;;2.01;100.00;101005.47;5100919;28;20024;-83
2022/11/14 05:28:50;;;;;;;35.53;15.35;;;;;;;2.12;100.00;101012.28;5084998;28;20036;-82
2022/11/14 05:31:18;;;;;;;35.83;14.48;;;;;;;2.05;100.00;101005.34;5096487;28;20034;-82
2022/11/14 05:33:45;;;;;;;32.67;14.20;;;;;;;2.05;100.00;101003.56;5087490;28;20036;-83
2022/11/14 05:36:13;;;;;;;41.50;16.42;;;;;;;2.12;100.00;100999.66;5085287;28;20118;-82
2022/11/14 05:38:39;;;;;;;42.28;16.88;;;;;;;2.18;100.00;100993.09;5085870;28;20024;-83
2022/11/14 05:41:09;;;;;;;35.30;16.15;;;;;;;2.02;100.00;100961.34;5085109;28;20062;-81
2022/11/14 05:43:35;;;;;;;39.95;17.00;;;;;;;2.15;100.00;100988.72;5066466;28;20095;-81
2022/11/14 05:46:02;;;;;;;37.72;16.60;;;;;;;2.17;100.00;100984.13;5087097;28;20066;-81
2022/11/14 05:48:29;;;;;;;46.33;17.10;;;;;;;2.12;100.00;100974.47;5085974;28;20027;-80
2022/11/14 05:50:59;;;;;;;42.63;16.85;;;;;;;2.11;100.00;100973.56;5078170;28;20040;-83
2022/11/14 05:53:26;;;;;;;39.72;16.40;;;;;;;2.08;100.00;100964.72;5080088;28;20031;-82
2022/11/14 05:55:52;;;;;;;35.92;15.35;;;;;;;2.05;100.00;100973.84;5082907;28;20050;-82
2022/11/14 05:58:17;;;;;;;45.28;16.17;;;;;;;1.97;100.00;100974.16;5088406;28;20036;-84
2022/11/14 06:00:43;;;;;;;29.42;14.50;;;;;;;1.86;100.00;100964.75;5104338;28;20119;-82
2022/11/14 06:03:09;;;;;;;36.17;15.65;;;;;;;2.11;100.00;100972.72;5103477;28;20126;-81
2022/11/14 06:05:35;;;;;;;36.05;16.50;;;;;;;2.14;100.00;100973.44;5111425;28;20061;-83
2022/11/14 06:08:01;;;;;;;39.72;16.92;;;;;;;2.14;100.00;100969.88;5100228;28;20036;-83
2022/11/14 06:10:27;;;;;;;32.20;15.20;;;;;;;2.07;100.00;100966.56;5089610;28;20649;-82
2022/11/14 06:12:53;;;;;;;35.15;16.50;;;;;;;2.09;100.00;100974.59;5083501;28;20024;-82
2022/11/14 06:15:19;;;;;;;36.97;17.00;;;;;;;2.17;100.00;100972.44;5083383;28;20079;-84
2022/11/14 06:17:45;;;;;;;33.75;16.42;;;;;;;2.18;100.00;100964.28;5081786;28;20055;-82
2022/11/14 06:20:14;;;;;;;40.15;17.02;;;;;;;2.09;100.00;100966.50;5103515;28;20114;-83
2022/11/14 06:22:40;;;;;;;41.55;15.75;;;;;;;2.06;100.00;100962.09;5085183;28;20089;-82
2022/11/14 06:25:06;;;;;;;28.33;15.63;;;;;;;1.87;100.00;100944.91;5067479;28;20039;-83
2022/11/14 06:27:32;;;;;;;37.25;17.02;;;;;;;1.84;100.00;100970.22;5074345;28;20474;-82
2022/11/14 06:29:57;;;;;;;37.08;16.35;;;;;;;1.91;100.00;100971.72;5086947;28;20074;-82
2022/11/14 06:32:23;;;;;;;30.48;15.02;;;;;;;1.94;100.00;100974.28;5088149;28;20068;-82
2022/11/14 06:34:48;;;;;;;32.50;15.38;;;;;;;2.01;100.00;100986.59;5105299;28;20055;-81
2022/11/14 06:37:14;;;;;;;31.52;16.77;;;;;;;1.99;100.00;100983.06;5066771;28;20096;-82
2022/11/14 06:39:39;;;;;;;33.17;16.13;;;;;;;2.12;100.00;100980.75;5082969;28;20040;-83
2022/11/14 06:42:05;;;;;;;36.15;16.48;;;;;;;2.22;100.00;100983.06;5103864;28;20052;-81
2022/11/14 06:44:30;;;;;;;32.83;16.35;;;;;;;2.14;100.00;100978.84;5086611;28;20035;-82
2022/11/14 06:47:00;;;;;;;41.42;15.80;;;;;;;2.21;100.00;100984.88;5085466;28;20052;-82
2022/11/14 06:49:26;;;;;;;42.20;16.25;;;;;;;2.22;100.00;100986.63;5087068;28;20039;-83
2022/11/14 06:51:52;;;;;;;45.03;17.23;;;;;;;2.19;100.00;100973.25;5103254;28;20040;-83
2022/11/14 06:54:17;;;;;;;43.13;16.42;;;;;;;2.11;100.00;100972.72;5103631;28;20453;-82
2022/11/14 06:56:43;;;;;;;35.28;16.45;;;;;;;2.19;100.00;100976.81;5102850;28;20054;-82
2022/11/14 06:59:09;;;;;;;34.83;16.08;;;;;;;2.10;100.00;100957.44;5103756;28;20057;-83
2022/11/14 07:01:34;;;;;;;36.20;16.95;;;;;;;2.28;100.00;100986.38;5084339;28;20036;-81
2022/11/14 07:04:01;;;;;;;33.55;15.35;;;;;;;2.19;100.00;100976.81;5069689;28;20027;-82
2022/11/14 07:06:28;;;;;;;35.75;16.00;;;;;;;2.23;100.00;100990.22;5085624;28;20038;-82
2022/11/14 07:08:55;;;;;;;35.53;16.00;;;;;;;2.12;100.00;100966.38;5082610;28;20115;-83
2022/11/14 07:11:23;;;;;;;29.48;14.13;;;;;;;2.16;100.00;100986.88;5100507;28;20051;-82
2022/11/14 07:13:54;;;;;;;36.40;16.25;;;;;;;2.22;100.00;100992.03;5101034;28;20028;-82
2022/11/14 07:16:23;;;;;;;31.95;15.75;;;;;;;2.26;100.00;100992.78;5065585;28;20469;-83
2022/11/14 07:18:49;;;;;;;37.05;15.77;;;;;;;2.29;100.00;100998.06;5083057;28;20024;-82
2022/11/14 07:21:14;;;;;;;37.63;15.07;;;;;;;2.33;100.00;100991.59;5065685;28;20115;-81
2022/11/14 07:23:41;;;;;;;32.90;15.52;;;;;;;2.32;100.00;100979.91;5048989;28;20043;-83
2022/11/14 07:26:10;;;;;;;37.35;16.00;;;;;;;2.14;100.00;100956.38;5102367;28;20027;-81
2022/11/14 07:28:40;;;;;;;37.83;15.93;;;;;;;2.15;100.00;100974.34;5105823;28;20036;-84
2022/11/14 07:31:07;;;;;;;42.60;16.83;;;;;;;2.08;100.00;100959.31;5125045;28;20015;-82
2022/11/14 07:33:33;;;;;;;34.95;15.57;;;;;;;2.29;100.00;100976.44;5073745;28;20090;-83
2022/11/14 07:36:00;;;;;;;35.17;16.77;;;;;;;2.39;100.00;100977.81;5088814;28;20044;-81
2022/11/14 07:38:26;;;;;;;35.45;16.23;;;;;;;2.53;100.00;100985.31;5068916;28;20035;-82
2022/11/14 07:40:59;;;;;;;34.40;16.77;;;;;;;2.53;100.00;100974.53;5085669;28;20034;-82
2022/11/14 07:43:26;;;;;;;35.33;17.50;;;;;;;2.70;100.00;100988.16;5085086;28;20024;-82
2022/11/14 07:45:51;;;;;;;40.38;16.13;;;;;;;2.71;100.00;100981.81;5103756;28;20044;-82
2022/11/14 07:48:17;;;;;;;39.55;15.93;;;;;;;2.90;100.00;100986.38;5077566;28;20076;-83
2022/11/14 07:50:43;;;;;;;30.40;15.00;;;;;;;2.97;100.00;100978.88;5073066;28;20411;-83
2022/11/14 07:53:09;;;;;;;33.38;13.90;;;;;;;3.05;100.00;100984.81;5086400;28;20031;-84
2022/11/14 07:55:36;;;;;;;35.15;16.75;;;;;;;3.06;100.00;100990.16;5085334;28;20028;-82
2022/11/14 07:58:02;;;;;;;39.28;16.33;;;;;;;3.09;100.00;100976.47;5112744;28;20061;-83
2022/11/14 08:00:28;;;;;;;30.45;16.00;;;;;;;3.38;100.00;100974.25;5085895;28;20389;-83
2022/11/14 08:02:53;;;;;;;35.05;16.55;;;;;;;3.54;100.00;100976.22;5077530;28;20612;-83
2022/11/14 08:05:19;;;;;;;33.85;15.32;;;;;;;3.70;100.00;100965.53;5088707;28;20076;-82
2022/11/14 08:07:45;;;;;;;34.22;14.30;;;;;;;3.73;100.00;100965.38;5096065;28;20036;-82
2022/11/14 08:10:12;;;;;;;38.05;16.45;;;;;;;3.74;100.00;100959.91;5105278;28;20035;-82
2022/11/14 08:12:39;;;;;;;31.33;15.43;;;;;;;3.80;100.00;100966.84;5071505;28;20043;-82
2022/11/14 08:15:13;;;;;;;36.13;17.63;;;;;;;3.79;100.00;100955.13;5085173;28;20099;-82
2022/11/14 08:17:39;;;;;;;30.15;16.00;;;;;;;4.26;100.00;100966.38;5089145;28;20031;-82
2022/11/14 08:20:06;;;;;;;32.92;15.07;;;;;;;4.34;100.00;100961.44;5088261;28;20429;-82
2022/11/14 08:22:31;;;;;;;43.20;15.07;;;;;;;4.40;100.00;100956.56;5088452;28;20046;-82
2022/11/14 08:24:57;;;;;;;33.88;15.68;;;;;;;4.44;100.00;100957.28;5088242;28;20399;-81
2022/11/14 08:27:23;;;;;;;29.02;15.55;;;;;;;4.72;100.00;100958.53;5105007;28;20036;-81
2022/11/14 08:29:50;;;;;;;37.53;14.77;;;;;;;4.83;100.00;100963.41;5055337;28;20023;-82
2022/11/14 08:32:21;;;;;;;32.22;15.23;;;;;;;4.86;100.00;100960.53;5072050;28;20036;-82
2022/11/14 08:34:46;;;;;;;42.85;16.15;;;;;;;4.75;100.00;100950.25;5034516;28;20051;-83
2022/11/14 08:37:12;;;;;;;37.70;17.65;;;;;;;4.78;100.00;100955.50;5101334;28;20103;-82
2022/11/14 08:39:37;;;;;;;42.00;17.00;;;;;;;5.34;100.00;100954.25;5068045;28;20032;-81
2022/11/14 08:42:03;;;;;;;35.20;15.73;;;;;;;5.19;100.00;100954.22;5044857;28;20031;-81
2022/11/14 08:44:28;;;;;;;39.00;17.48;;;;;;;5.09;100.00;100924.88;5070442;28;20032;-82
2022/11/14 08:46:54;;;;;;;37.97;15.65;;;;;;;5.48;100.00;100928.16;5054204;28;20055;-82
2022/11/14 08:49:20;;;;;;;37.13;16.73;;;;;;;5.69;100.00;100921.50;5105429;28;20036;-82
2022/11/14 08:51:45;;;;;;;59.08;17.42;;;;;;;5.79;100.00;100943.59;5087027;28;20031;-81
2022/11/14 08:54:10;;;;;;;51.85;18.35;;;;;;;5.85;100.00;100937.81;5071934;28;20031;-83
2022/11/14 08:56:36;;;;;;;36.88;16.58;;;;;;;6.11;100.00;100934.53;5093162;28;20023;-82
2022/11/14 08:59:03;;;;;;;37.85;16.98;;;;;;;5.94;100.00;100940.94;5088652;28;20459;-81
2022/11/14 09:01:28;;;;;;;34.65;17.42;;;;;;;6.23;100.00;100923.81;5123257;28;20102;-82
2022/11/14 09:03:54;;;;;;;32.60;16.52;;;;;;;6.52;100.00;100926.59;5091540;28;20043;-82
2022/11/14 09:06:20;;;;;;;39.10;18.25;;;;;;;6.34;100.00;100920.44;5072285;28;20129;-80
2022/11/14 09:08:45;;;;;;;41.35;18.17;;;;;;;6.37;100.00;100914.81;5125218;28;20043;-81
2022/11/14 09:11:10;;;;;;;39.13;18.38;;;;;;;6.62;100.00;100916.03;5107049;28;20437;-81
2022/11/14 09:13:36;;;;;;;42.45;19.25;;;;;;;6.71;100.00;100907.31;5106370;28;20447;-81
2022/11/14 09:16:01;;;;;;;50.42;18.88;;;;;;;6.96;100.00;100892.16;5106621;28;20035;-83
2022/11/14 09:18:29;;;;;;;41.00;18.60;;;;;;;7.28;100.00;100916.44;5101228;28;20100;-81
2022/11/14 09:21:02;;;;;;;47.30;19.15;;;;;;;7.02;100.00;100905.38;5067721;28;20487;-81
2022/11/14 09:23:28;;;;;;;48.90;20.35;;;;;;;7.05;100.00;100907.91;5085579;28;20016;-82
2022/11/14 09:25:54;;;;;;;50.17;20.17;;;;;;;7.22;100.00;100908.69;5093395;28;20085;-83
2022/11/14 09:28:20;;;;;;;44.28;20.13;;;;;;;7.31;100.00;100908.97;5083571;28;20032;-82
2022/11/14 09:30:45;;;;;;;46.13;20.10;;;;;;;7.47;100.00;100900.66;5084218;28;20063;-81
2022/11/14 09:33:11;;;;;;;48.92;21.38;;;;;;;7.45;100.00;100910.78;5033898;28;20035;-82
2022/11/14 09:35:36;;;;;;;44.83;22.33;;;;;;;7.74;100.00;100910.72;5088937;28;20024;-81
2022/11/14 09:38:10;;;;;;;57.22;23.67;;;;;;;7.43;100.00;100912.72;5067711;28;20397;-82
2022/11/14 09:40:42;;;;;;;53.45;22.02;;;;;;;7.54;100.00;100915.63;5065835;28;20036;-82
2022/11/14 09:43:26;;;;;;;57.03;23.15;;;;;;;7.58;100.00;100909.97;5083702;28;20070;-82
2022/11/14 09:45:52;;;;;;;61.47;23.52;;;;;;;7.78;100.00;100906.78;5083122;28;20068;-83
2022/11/14 09:48:24;;;;;;;58.92;23.52;;;;;;;7.63;100.00;100914.16;5083900;28;20395;-82
2022/11/14 09:51:05;;;;;;;59.83;23.92;;;;;;;7.81;100.00;100912.03;5099422;28;20047;-81
2022/11/14 09:53:45;;;;;;;57.42;24.23;;;;;;;7.66;100.00;100904.91;5103901;28;20062;-81
2022/11/14 09:56:14;;;;;;;63.47;23.48;;;;;;;7.54;100.00;100903.84;5103983;28;20102;-83
2022/11/14 09:58:41;;;;;;;62.00;24.65;;;;;;;7.65;100.00;100897.69;5086918;28;20475;-83
2022/11/14 10:01:29;;;;;;;56.88;24.20;;;;;;;7.79;100.00;100902.22;5103239;28;20035;-83
2022/11/14 10:04:16;;;;;;;64.72;26.50;;;;;;;8.00;100.00;100905.34;5103647;28;20035;-82
2022/11/14 10:06:49;;;;;;;65.50;25.27;;;;;;;8.05;100.00;100898.63;5086117;28;20042;-82
2022/11/14 10:09:18;;;;;;;64.70;26.80;;;;;;;8.00;100.00;100911.69;5121431;28;20031;-82
2022/11/14 10:12:12;;;;;;;57.03;24.98;;;;;;;8.05;100.00;100903.19;5102719;28;20031;-83
2022/11/14 10:15:19;;;;;;;61.72;26.08;;;;;;;8.20;100.00;100904.88;5086040;28;20034;-82
2022/11/14 10:17:52;;;;;;;71.35;28.75;;;;;;;8.16;100.00;100897.00;5099824;28;20161;-82
2022/11/14 10:20:44;;;;;;;67.90;26.98;;;;;;;8.20;100.00;100898.53;5083278;28;20115;-82
2022/11/14 10:23:37;;;;;;;75.85;27.60;;;;;;;8.15;100.00;100904.31;5079412;28;20115;-83
2022/11/14 10:26:14;;;;;;;70.90;28.35;;;;;;;8.25;100.00;100894.53;5099455;28;20040;-82
2022/11/14 10:28:54;;;;;;;78.22;27.05;;;;;;;8.28;100.00;100909.81;5083120;28;20046;-82
2022/11/14 10:32:15;;;;;;;70.40;26.52;;;;;;;8.18;100.00;100912.31;5085148;28;20055;-82
2022/11/14 10:34:46;;;;;;;86.03;29.80;;;;;;;8.02;100.00;100915.19;5063648;28;20047;-84
2022/11/14 10:37:45;;;;;;;69.57;26.10;;;;;;;7.90;100.00;100905.09;5104519;28;20079;-82
2022/11/14 10:40:21;;;;;;;74.63;30.08;;;;;;;7.85;100.00;100891.78;5086413;28;20027;-83
2022/11/14 10:42:54;;;;;;;85.45;31.30;;;;;;;7.72;100.00;100899.91;5102606;28;20058;-82
2022/11/14 10:45:25;;;;;;;92.75;34.15;;;;;;;7.57;100.00;100891.88;5087449;28;20028;-83
2022/11/14 10:48:02;;;;;;;86.03;33.70;;;;;;;7.55;100.00;100879.22;5103096;28;20042;-82
2022/11/14 10:50:37;;;;;;;93.32;35.38;;;;;;;7.65;100.00;100882.22;5103501;28;20024;-83
2022/11/14 10:53:17;;;;;;;102.03;34.80;;;;;;;7.56;100.00;100885.56;5102679;28;20150;-83
2022/11/14 10:55:45;;;;;;;96.88;34.40;;;;;;;7.35;100.00;100872.38;5086826;28;20036;-83
2022/11/14 10:58:13;;;;;;;98.95;34.85;;;;;;;7.29;100.00;100878.22;5086653;28;20024;-82
2022/11/14 11:00:39;;;;;;;96.53;35.40;;;;;;;7.20;100.00;100886.09;5069287;28;20028;-83
2022/11/14 11:03:06;;;;;;;104.82;36.03;;;;;;;7.27;100.00;100876.56;5090753;28;20031;-84
2022/11/14 11:05:53;;;;;;;91.18;35.03;;;;;;;7.29;100.00;100871.91;5072814;28;20494;-82
2022/11/14 11:11:28;;;;;;;97.03;35.13;;;;;;;7.47;100.00;100864.38;5106789;28;20035;-82
2022/11/14 11:13:57;;;;;;;94.88;34.35;;;;;;;7.46;100.00;100863.50;5106813;28;20110;-82
2022/11/14 11:16:26;;;;;;;89.82;34.15;;;;;;;7.46;100.00;100851.72;5107779;28;20432;-82